sensor_id;sensor_type;location;lat;lon;timestamp;temperature;humidity
17599;DHT22;8918;52.092;5.232;2023-07-02T00:01:11;16.70;99.90
17599;DHT22;8918;52.092;5.232;2023-07-02T00:03:40;16.60;99.90
17599;DHT22;8918;52.092;5.232;2023-07-02T00:06:05;16.60;99.90
17599;DHT22;8918;52.092;5.232;2023-07-02T00:08:31;16.60;99.90
17599;DHT22;8918;52.092;5.232;2023-07-02T00:10:57;16.50;99.90
17599;DHT22;8918;52.092;5.232;2023-07-02T00:13:22;16.50;99.90
17599;DHT22;8918;52.092;5.232;2023-07-02T00:15:48;16.50;99.90
17599;DHT22;8918;52.092;5.232;2023-07-02T00:18:14;16.40;99.90
17599;DHT22;8918;52.092;5.232;2023-07-02T00:20:41;16.40;99.90
17599;DHT22;8918;52.092;5.232;2023-07-02T00:23:07;16.40;99.90
17599;DHT22;8918;52.092;5.232;2023-07-02T00:25:34;16.30;99.90
17599;DHT22;8918;52.092;5.232;2023-07-02T00:28:00;16.30;99.90
17599;DHT22;8918;52.092;5.232;2023-07-02T00:30:25;16.20;99.90
17599;DHT22;8918;52.092;5.232;2023-07-02T00:32:51;16.20;99.90
17599;DHT22;8918;52.092;5.232;2023-07-02T00:35:16;16.10;99.90
17599;DHT22;8918;52.092;5.232;2023-07-02T00:37:42;16.10;99.90
17599;DHT22;8918;52.092;5.232;2023-07-02T00:40:08;16.00;99.90
17599;DHT22;8918;52.092;5.232;2023-07-02T00:42:34;16.00;99.90
17599;DHT22;8918;52.092;5.232;2023-07-02T00:44:59;15.90;99.90
17599;DHT22;8918;52.092;5.232;2023-07-02T00:47:34;15.90;99.90
17599;DHT22;8918;52.092;5.232;2023-07-02T00:50:01;15.90;99.90
17599;DHT22;8918;52.092;5.232;2023-07-02T00:52:27;15.80;99.90
17599;DHT22;8918;52.092;5.232;2023-07-02T00:54:53;15.80;99.90
17599;DHT22;8918;52.092;5.232;2023-07-02T00:57:19;15.80;99.90
17599;DHT22;8918;52.092;5.232;2023-07-02T00:59:44;15.70;99.90
17599;DHT22;8918;52.092;5.232;2023-07-02T01:02:10;15.70;99.90
17599;DHT22;8918;52.092;5.232;2023-07-02T01:04:38;15.60;99.90
17599;DHT22;8918;52.092;5.232;2023-07-02T01:07:04;15.50;99.90
17599;DHT22;8918;52.092;5.232;2023-07-02T01:09:34;15.60;99.90
17599;DHT22;8918;52.092;5.232;2023-07-02T01:12:02;15.40;99.90
17599;DHT22;8918;52.092;5.232;2023-07-02T01:14:33;15.40;99.90
17599;DHT22;8918;52.092;5.232;2023-07-02T01:17:00;15.40;99.90
17599;DHT22;8918;52.092;5.232;2023-07-02T01:22:10;15.30;99.90
17599;DHT22;8918;52.092;5.232;2023-07-02T01:24:36;15.30;99.90
17599;DHT22;8918;52.092;5.232;2023-07-02T01:27:02;15.20;99.90
17599;DHT22;8918;52.092;5.232;2023-07-02T01:29:31;15.20;99.90
17599;DHT22;8918;52.092;5.232;2023-07-02T01:31:57;15.10;99.90
17599;DHT22;8918;52.092;5.232;2023-07-02T01:34:23;15.00;99.90
17599;DHT22;8918;52.092;5.232;2023-07-02T01:36:49;15.00;99.90
17599;DHT22;8918;52.092;5.232;2023-07-02T01:39:14;14.90;99.90
17599;DHT22;8918;52.092;5.232;2023-07-02T01:41:54;14.90;99.90
17599;DHT22;8918;52.092;5.232;2023-07-02T01:44:21;14.80;99.90
17599;DHT22;8918;52.092;5.232;2023-07-02T01:46:47;14.70;99.90
17599;DHT22;8918;52.092;5.232;2023-07-02T01:49:16;14.60;99.90
17599;DHT22;8918;52.092;5.232;2023-07-02T01:51:49;14.60;99.90
17599;DHT22;8918;52.092;5.232;2023-07-02T01:54:15;14.50;99.90
17599;DHT22;8918;52.092;5.232;2023-07-02T01:56:41;14.50;99.90
17599;DHT22;8918;52.092;5.232;2023-07-02T01:59:07;14.50;99.90
17599;DHT22;8918;52.092;5.232;2023-07-02T02:01:32;14.50;99.90
17599;DHT22;8918;52.092;5.232;2023-07-02T02:03:58;14.40;99.90
17599;DHT22;8918;52.092;5.232;2023-07-02T02:06:24;14.40;99.90
17599;DHT22;8918;52.092;5.232;2023-07-02T02:08:50;14.40;99.90
17599;DHT22;8918;52.092;5.232;2023-07-02T02:11:15;14.40;99.90
17599;DHT22;8918;52.092;5.232;2023-07-02T02:13:41;14.30;99.90
17599;DHT22;8918;52.092;5.232;2023-07-02T02:16:06;14.30;99.90
17599;DHT22;8918;52.092;5.232;2023-07-02T02:18:32;14.30;99.90
17599;DHT22;8918;52.092;5.232;2023-07-02T02:20:57;14.40;99.90
17599;DHT22;8918;52.092;5.232;2023-07-02T02:23:23;14.40;99.90
17599;DHT22;8918;52.092;5.232;2023-07-02T02:25:49;14.40;99.90
17599;DHT22;8918;52.092;5.232;2023-07-02T02:28:14;14.40;99.90
17599;DHT22;8918;52.092;5.232;2023-07-02T02:30:40;14.30;99.90
17599;DHT22;8918;52.092;5.232;2023-07-02T02:33:05;14.30;99.90
17599;DHT22;8918;52.092;5.232;2023-07-02T02:35:31;14.20;99.90
17599;DHT22;8918;52.092;5.232;2023-07-02T02:37:57;14.20;99.90
17599;DHT22;8918;52.092;5.232;2023-07-02T02:40:22;14.20;99.90
17599;DHT22;8918;52.092;5.232;2023-07-02T02:42:48;14.20;99.90
17599;DHT22;8918;52.092;5.232;2023-07-02T02:45:13;14.10;99.90
17599;DHT22;8918;52.092;5.232;2023-07-02T02:47:39;14.10;99.90
17599;DHT22;8918;52.092;5.232;2023-07-02T02:50:05;14.00;99.90
17599;DHT22;8918;52.092;5.232;2023-07-02T02:52:31;14.00;99.90
17599;DHT22;8918;52.092;5.232;2023-07-02T02:54:57;14.00;99.90
17599;DHT22;8918;52.092;5.232;2023-07-02T02:57:22;14.00;99.90
17599;DHT22;8918;52.092;5.232;2023-07-02T02:59:48;14.00;99.90
17599;DHT22;8918;52.092;5.232;2023-07-02T03:02:13;14.00;99.90
17599;DHT22;8918;52.092;5.232;2023-07-02T03:04:39;14.00;99.90
17599;DHT22;8918;52.092;5.232;2023-07-02T03:07:06;14.00;99.90
17599;DHT22;8918;52.092;5.232;2023-07-02T03:09:35;14.00;99.90
17599;DHT22;8918;52.092;5.232;2023-07-02T03:12:01;13.90;99.90
17599;DHT22;8918;52.092;5.232;2023-07-02T03:14:26;13.90;99.90
17599;DHT22;8918;52.092;5.232;2023-07-02T03:16:52;13.90;99.90
17599;DHT22;8918;52.092;5.232;2023-07-02T03:19:17;13.80;99.90
17599;DHT22;8918;52.092;5.232;2023-07-02T03:21:43;13.80;99.90
17599;DHT22;8918;52.092;5.232;2023-07-02T03:24:09;13.80;99.90
17599;DHT22;8918;52.092;5.232;2023-07-02T03:26:42;13.90;99.90
17599;DHT22;8918;52.092;5.232;2023-07-02T03:29:07;13.80;99.90
17599;DHT22;8918;52.092;5.232;2023-07-02T03:31:33;13.80;99.90
17599;DHT22;8918;52.092;5.232;2023-07-02T03:34:03;13.80;99.90
17599;DHT22;8918;52.092;5.232;2023-07-02T03:36:29;13.80;99.90
17599;DHT22;8918;52.092;5.232;2023-07-02T03:38:55;13.70;99.90
17599;DHT22;8918;52.092;5.232;2023-07-02T03:41:21;13.70;99.90
17599;DHT22;8918;52.092;5.232;2023-07-02T03:43:46;13.70;99.90
17599;DHT22;8918;52.092;5.232;2023-07-02T03:46:13;13.70;99.90
17599;DHT22;8918;52.092;5.232;2023-07-02T03:48:39;13.70;99.90
17599;DHT22;8918;52.092;5.232;2023-07-02T03:51:05;13.70;99.90
17599;DHT22;8918;52.092;5.232;2023-07-02T03:53:31;13.70;99.90
17599;DHT22;8918;52.092;5.232;2023-07-02T03:55:56;13.70;99.90
17599;DHT22;8918;52.092;5.232;2023-07-02T03:58:22;13.70;99.90
17599;DHT22;8918;52.092;5.232;2023-07-02T04:00:47;13.70;99.90
17599;DHT22;8918;52.092;5.232;2023-07-02T04:03:15;13.70;99.90
17599;DHT22;8918;52.092;5.232;2023-07-02T04:05:41;13.70;99.90
17599;DHT22;8918;52.092;5.232;2023-07-02T04:08:07;13.80;99.90
17599;DHT22;8918;52.092;5.232;2023-07-02T04:10:33;13.70;99.90
17599;DHT22;8918;52.092;5.232;2023-07-02T04:12:58;13.80;99.90
17599;DHT22;8918;52.092;5.232;2023-07-02T04:15:24;13.80;99.90
17599;DHT22;8918;52.092;5.232;2023-07-02T04:17:52;13.80;99.90
17599;DHT22;8918;52.092;5.232;2023-07-02T04:20:17;13.80;99.90
17599;DHT22;8918;52.092;5.232;2023-07-02T04:22:44;13.70;99.90
17599;DHT22;8918;52.092;5.232;2023-07-02T04:25:11;13.80;99.90
17599;DHT22;8918;52.092;5.232;2023-07-02T04:27:41;13.80;99.90
17599;DHT22;8918;52.092;5.232;2023-07-02T04:30:07;13.80;99.90
17599;DHT22;8918;52.092;5.232;2023-07-02T04:32:33;13.80;99.90
17599;DHT22;8918;52.092;5.232;2023-07-02T04:34:59;13.80;99.90
17599;DHT22;8918;52.092;5.232;2023-07-02T04:37:24;13.90;99.90
17599;DHT22;8918;52.092;5.232;2023-07-02T04:39:50;13.90;99.90
17599;DHT22;8918;52.092;5.232;2023-07-02T04:42:16;13.90;99.90
17599;DHT22;8918;52.092;5.232;2023-07-02T04:44:41;13.90;99.90
17599;DHT22;8918;52.092;5.232;2023-07-02T04:47:08;14.00;99.90
17599;DHT22;8918;52.092;5.232;2023-07-02T04:49:34;14.00;99.90
17599;DHT22;8918;52.092;5.232;2023-07-02T04:52:00;14.00;99.90
17599;DHT22;8918;52.092;5.232;2023-07-02T04:54:25;14.00;99.90
17599;DHT22;8918;52.092;5.232;2023-07-02T04:56:51;14.00;99.90
17599;DHT22;8918;52.092;5.232;2023-07-02T04:59:17;14.00;99.90
17599;DHT22;8918;52.092;5.232;2023-07-02T05:01:43;14.10;99.90
17599;DHT22;8918;52.092;5.232;2023-07-02T05:04:10;14.10;99.90
17599;DHT22;8918;52.092;5.232;2023-07-02T05:06:37;14.10;99.90
17599;DHT22;8918;52.092;5.232;2023-07-02T05:09:02;14.10;99.90
17599;DHT22;8918;52.092;5.232;2023-07-02T05:11:28;14.20;99.90
17599;DHT22;8918;52.092;5.232;2023-07-02T05:13:53;14.20;99.90
17599;DHT22;8918;52.092;5.232;2023-07-02T05:16:19;14.30;99.90
17599;DHT22;8918;52.092;5.232;2023-07-02T05:18:45;14.30;99.90
17599;DHT22;8918;52.092;5.232;2023-07-02T05:21:11;14.30;99.90
17599;DHT22;8918;52.092;5.232;2023-07-02T05:23:37;14.40;99.90
17599;DHT22;8918;52.092;5.232;2023-07-02T05:26:02;14.40;99.90
17599;DHT22;8918;52.092;5.232;2023-07-02T05:28:28;14.50;99.90
17599;DHT22;8918;52.092;5.232;2023-07-02T05:30:53;14.60;99.90
17599;DHT22;8918;52.092;5.232;2023-07-02T05:33:20;14.60;99.90
17599;DHT22;8918;52.092;5.232;2023-07-02T05:35:48;14.70;99.90
17599;DHT22;8918;52.092;5.232;2023-07-02T05:38:14;14.80;99.90
17599;DHT22;8918;52.092;5.232;2023-07-02T05:40:41;14.80;99.90
17599;DHT22;8918;52.092;5.232;2023-07-02T05:43:06;14.90;99.90
17599;DHT22;8918;52.092;5.232;2023-07-02T05:45:32;14.90;99.90
17599;DHT22;8918;52.092;5.232;2023-07-02T05:47:57;15.00;99.90
17599;DHT22;8918;52.092;5.232;2023-07-02T05:50:23;15.00;99.90
17599;DHT22;8918;52.092;5.232;2023-07-02T05:52:49;15.10;99.90
17599;DHT22;8918;52.092;5.232;2023-07-02T05:55:14;15.10;99.90
17599;DHT22;8918;52.092;5.232;2023-07-02T05:57:40;15.20;99.90
17599;DHT22;8918;52.092;5.232;2023-07-02T06:00:06;15.20;99.90
17599;DHT22;8918;52.092;5.232;2023-07-02T06:02:32;15.30;99.90
17599;DHT22;8918;52.092;5.232;2023-07-02T06:04:57;15.30;99.90
17599;DHT22;8918;52.092;5.232;2023-07-02T06:07:26;15.30;99.90
17599;DHT22;8918;52.092;5.232;2023-07-02T06:09:51;15.40;99.90
17599;DHT22;8918;52.092;5.232;2023-07-02T06:12:17;15.40;99.90
17599;DHT22;8918;52.092;5.232;2023-07-02T06:14:43;15.50;99.90
17599;DHT22;8918;52.092;5.232;2023-07-02T06:17:08;15.60;99.90
17599;DHT22;8918;52.092;5.232;2023-07-02T06:19:36;15.70;99.90
17599;DHT22;8918;52.092;5.232;2023-07-02T06:22:01;15.70;99.90
17599;DHT22;8918;52.092;5.232;2023-07-02T06:24:27;15.80;99.90
17599;DHT22;8918;52.092;5.232;2023-07-02T06:26:53;15.90;99.90
17599;DHT22;8918;52.092;5.232;2023-07-02T06:29:18;16.00;99.90
17599;DHT22;8918;52.092;5.232;2023-07-02T06:31:44;16.10;99.90
17599;DHT22;8918;52.092;5.232;2023-07-02T06:34:09;16.10;99.90
17599;DHT22;8918;52.092;5.232;2023-07-02T06:36:35;16.10;99.90
17599;DHT22;8918;52.092;5.232;2023-07-02T06:39:01;16.00;99.90
17599;DHT22;8918;52.092;5.232;2023-07-02T06:41:26;16.10;99.90
17599;DHT22;8918;52.092;5.232;2023-07-02T06:43:52;16.10;99.90
17599;DHT22;8918;52.092;5.232;2023-07-02T06:46:18;16.10;99.90
17599;DHT22;8918;52.092;5.232;2023-07-02T06:48:43;16.10;99.90
17599;DHT22;8918;52.092;5.232;2023-07-02T06:51:09;16.10;99.90
17599;DHT22;8918;52.092;5.232;2023-07-02T06:53:37;16.20;99.90
17599;DHT22;8918;52.092;5.232;2023-07-02T06:56:03;16.30;99.90
17599;DHT22;8918;52.092;5.232;2023-07-02T06:58:30;16.40;99.90
17599;DHT22;8918;52.092;5.232;2023-07-02T07:00:56;16.40;99.90
17599;DHT22;8918;52.092;5.232;2023-07-02T07:03:21;16.40;99.90
17599;DHT22;8918;52.092;5.232;2023-07-02T07:05:47;16.30;99.90
17599;DHT22;8918;52.092;5.232;2023-07-02T07:08:13;16.30;99.90
17599;DHT22;8918;52.092;5.232;2023-07-02T07:10:38;16.30;99.90
17599;DHT22;8918;52.092;5.232;2023-07-02T07:13:04;16.30;99.90
17599;DHT22;8918;52.092;5.232;2023-07-02T07:15:32;16.50;99.90
17599;DHT22;8918;52.092;5.232;2023-07-02T07:17:57;16.50;99.90
17599;DHT22;8918;52.092;5.232;2023-07-02T07:20:23;16.50;99.90
17599;DHT22;8918;52.092;5.232;2023-07-02T07:22:48;16.50;99.90
17599;DHT22;8918;52.092;5.232;2023-07-02T07:25:14;16.60;99.90
17599;DHT22;8918;52.092;5.232;2023-07-02T07:27:40;16.60;99.90
17599;DHT22;8918;52.092;5.232;2023-07-02T07:30:06;16.60;99.90
17599;DHT22;8918;52.092;5.232;2023-07-02T07:32:32;16.70;99.90
17599;DHT22;8918;52.092;5.232;2023-07-02T07:34:57;16.70;99.90
17599;DHT22;8918;52.092;5.232;2023-07-02T07:37:24;16.80;99.90
17599;DHT22;8918;52.092;5.232;2023-07-02T07:39:50;16.80;99.90
17599;DHT22;8918;52.092;5.232;2023-07-02T07:42:16;16.80;99.90
17599;DHT22;8918;52.092;5.232;2023-07-02T07:44:42;16.90;99.90
17599;DHT22;8918;52.092;5.232;2023-07-02T07:47:08;16.90;99.90
17599;DHT22;8918;52.092;5.232;2023-07-02T07:49:33;17.00;99.90
17599;DHT22;8918;52.092;5.232;2023-07-02T07:51:59;17.10;99.90
17599;DHT22;8918;52.092;5.232;2023-07-02T07:54:24;17.20;99.90
17599;DHT22;8918;52.092;5.232;2023-07-02T07:56:50;17.20;99.90
17599;DHT22;8918;52.092;5.232;2023-07-02T07:59:16;17.20;99.90
17599;DHT22;8918;52.092;5.232;2023-07-02T08:01:41;17.20;99.90
17599;DHT22;8918;52.092;5.232;2023-07-02T08:04:07;17.20;99.90
17599;DHT22;8918;52.092;5.232;2023-07-02T08:06:32;17.30;99.90
17599;DHT22;8918;52.092;5.232;2023-07-02T08:08:58;17.40;99.90
17599;DHT22;8918;52.092;5.232;2023-07-02T08:11:24;17.50;99.90
17599;DHT22;8918;52.092;5.232;2023-07-02T08:13:49;17.60;99.90
17599;DHT22;8918;52.092;5.232;2023-07-02T08:16:15;17.70;99.90
17599;DHT22;8918;52.092;5.232;2023-07-02T08:18:40;17.80;99.90
17599;DHT22;8918;52.092;5.232;2023-07-02T08:21:06;17.80;99.90
17599;DHT22;8918;52.092;5.232;2023-07-02T08:23:32;17.80;99.90
17599;DHT22;8918;52.092;5.232;2023-07-02T08:25:58;17.80;99.90
17599;DHT22;8918;52.092;5.232;2023-07-02T08:28:24;17.80;99.90
17599;DHT22;8918;52.092;5.232;2023-07-02T08:30:49;17.70;99.90
17599;DHT22;8918;52.092;5.232;2023-07-02T08:33:15;17.80;99.90
17599;DHT22;8918;52.092;5.232;2023-07-02T08:35:40;17.90;99.90
17599;DHT22;8918;52.092;5.232;2023-07-02T08:38:06;18.00;99.90
17599;DHT22;8918;52.092;5.232;2023-07-02T08:40:33;18.20;99.90
17599;DHT22;8918;52.092;5.232;2023-07-02T08:42:59;18.30;99.90
17599;DHT22;8918;52.092;5.232;2023-07-02T08:45:24;18.40;99.90
17599;DHT22;8918;52.092;5.232;2023-07-02T08:47:50;18.40;99.90
17599;DHT22;8918;52.092;5.232;2023-07-02T08:50:19;18.30;99.90
17599;DHT22;8918;52.092;5.232;2023-07-02T08:52:44;18.20;99.90
17599;DHT22;8918;52.092;5.232;2023-07-02T08:55:10;18.10;99.90
17599;DHT22;8918;52.092;5.232;2023-07-02T08:57:36;18.10;99.90
17599;DHT22;8918;52.092;5.232;2023-07-02T09:00:09;18.10;99.90
17599;DHT22;8918;52.092;5.232;2023-07-02T09:02:35;18.00;99.90
17599;DHT22;8918;52.092;5.232;2023-07-02T09:05:03;17.90;99.90
17599;DHT22;8918;52.092;5.232;2023-07-02T09:07:29;17.70;99.90
17599;DHT22;8918;52.092;5.232;2023-07-02T09:09:55;17.80;99.90
17599;DHT22;8918;52.092;5.232;2023-07-02T09:12:30;17.80;99.90
17599;DHT22;8918;52.092;5.232;2023-07-02T09:15:04;18.00;99.90
17599;DHT22;8918;52.092;5.232;2023-07-02T09:17:36;18.30;99.90
17599;DHT22;8918;52.092;5.232;2023-07-02T09:20:04;18.50;99.90
17599;DHT22;8918;52.092;5.232;2023-07-02T09:22:37;18.40;99.90
17599;DHT22;8918;52.092;5.232;2023-07-02T09:25:04;18.40;99.90
17599;DHT22;8918;52.092;5.232;2023-07-02T09:27:48;18.50;99.90
17599;DHT22;8918;52.092;5.232;2023-07-02T09:30:15;18.60;99.90
17599;DHT22;8918;52.092;5.232;2023-07-02T09:32:45;18.50;99.90
17599;DHT22;8918;52.092;5.232;2023-07-02T09:35:11;18.50;99.90
17599;DHT22;8918;52.092;5.232;2023-07-02T09:37:38;18.50;99.90
17599;DHT22;8918;52.092;5.232;2023-07-02T09:40:05;18.50;99.90
17599;DHT22;8918;52.092;5.232;2023-07-02T09:42:34;18.60;99.90
17599;DHT22;8918;52.092;5.232;2023-07-02T09:45:00;18.70;99.90
17599;DHT22;8918;52.092;5.232;2023-07-02T09:47:27;18.70;99.90
17599;DHT22;8918;52.092;5.232;2023-07-02T09:49:55;18.70;99.90
17599;DHT22;8918;52.092;5.232;2023-07-02T09:52:23;18.80;99.90
17599;DHT22;8918;52.092;5.232;2023-07-02T09:54:49;18.90;99.90
17599;DHT22;8918;52.092;5.232;2023-07-02T09:57:15;19.00;99.90
17599;DHT22;8918;52.092;5.232;2023-07-02T09:59:41;19.20;99.90
17599;DHT22;8918;52.092;5.232;2023-07-02T10:02:09;19.30;99.90
17599;DHT22;8918;52.092;5.232;2023-07-02T10:04:46;19.20;99.90
17599;DHT22;8918;52.092;5.232;2023-07-02T10:07:13;19.30;99.90
17599;DHT22;8918;52.092;5.232;2023-07-02T10:09:50;19.10;99.90
17599;DHT22;8918;52.092;5.232;2023-07-02T10:14:47;19.00;99.90
17599;DHT22;8918;52.092;5.232;2023-07-02T10:17:27;19.10;99.90
17599;DHT22;8918;52.092;5.232;2023-07-02T10:19:55;19.30;99.90
17599;DHT22;8918;52.092;5.232;2023-07-02T10:22:23;19.40;99.90
17599;DHT22;8918;52.092;5.232;2023-07-02T10:24:53;19.40;99.90
17599;DHT22;8918;52.092;5.232;2023-07-02T10:27:20;19.30;99.90
17599;DHT22;8918;52.092;5.232;2023-07-02T10:29:51;19.40;99.90
17599;DHT22;8918;52.092;5.232;2023-07-02T10:32:27;19.70;99.90
17599;DHT22;8918;52.092;5.232;2023-07-02T10:34:56;19.70;99.90
17599;DHT22;8918;52.092;5.232;2023-07-02T10:37:24;19.60;99.90
17599;DHT22;8918;52.092;5.232;2023-07-02T10:39:49;19.60;99.90
17599;DHT22;8918;52.092;5.232;2023-07-02T10:42:17;19.40;99.90
17599;DHT22;8918;52.092;5.232;2023-07-02T10:44:52;19.30;99.90
17599;DHT22;8918;52.092;5.232;2023-07-02T10:47:18;19.10;99.90
17599;DHT22;8918;52.092;5.232;2023-07-02T10:49:45;19.00;99.90
17599;DHT22;8918;52.092;5.232;2023-07-02T10:52:10;18.90;99.90
17599;DHT22;8918;52.092;5.232;2023-07-02T10:54:43;18.90;99.90
17599;DHT22;8918;52.092;5.232;2023-07-02T10:57:10;19.10;99.90
17599;DHT22;8918;52.092;5.232;2023-07-02T10:59:35;19.30;99.90
17599;DHT22;8918;52.092;5.232;2023-07-02T11:02:01;19.40;99.90
17599;DHT22;8918;52.092;5.232;2023-07-02T11:04:27;19.70;99.90
17599;DHT22;8918;52.092;5.232;2023-07-02T11:06:54;20.00;99.90
17599;DHT22;8918;52.092;5.232;2023-07-02T11:09:19;20.20;99.90
17599;DHT22;8918;52.092;5.232;2023-07-02T11:11:54;20.20;99.90
17599;DHT22;8918;52.092;5.232;2023-07-02T11:14:36;20.00;99.90
17599;DHT22;8918;52.092;5.232;2023-07-02T11:17:06;19.80;99.90
17599;DHT22;8918;52.092;5.232;2023-07-02T11:19:33;19.80;99.90
17599;DHT22;8918;52.092;5.232;2023-07-02T11:21:59;19.80;99.90
17599;DHT22;8918;52.092;5.232;2023-07-02T11:24:28;19.70;99.90
17599;DHT22;8918;52.092;5.232;2023-07-02T11:26:57;19.60;99.90
17599;DHT22;8918;52.092;5.232;2023-07-02T11:29:23;19.70;99.90
17599;DHT22;8918;52.092;5.232;2023-07-02T11:31:49;19.90;99.90
17599;DHT22;8918;52.092;5.232;2023-07-02T11:34:19;20.00;99.90
17599;DHT22;8918;52.092;5.232;2023-07-02T11:36:46;19.90;99.90
17599;DHT22;8918;52.092;5.232;2023-07-02T11:39:12;19.80;99.90
17599;DHT22;8918;52.092;5.232;2023-07-02T11:44:04;19.80;99.90
17599;DHT22;8918;52.092;5.232;2023-07-02T11:46:29;20.00;99.90
17599;DHT22;8918;52.092;5.232;2023-07-02T11:48:55;20.40;99.90
17599;DHT22;8918;52.092;5.232;2023-07-02T11:51:21;20.80;99.90
17599;DHT22;8918;52.092;5.232;2023-07-02T11:53:47;21.00;99.90
17599;DHT22;8918;52.092;5.232;2023-07-02T11:56:12;21.10;99.90
17599;DHT22;8918;52.092;5.232;2023-07-02T11:58:39;20.80;99.90
17599;DHT22;8918;52.092;5.232;2023-07-02T12:01:05;20.70;99.90
17599;DHT22;8918;52.092;5.232;2023-07-02T12:03:30;20.50;99.90
17599;DHT22;8918;52.092;5.232;2023-07-02T12:05:56;20.40;99.90
17599;DHT22;8918;52.092;5.232;2023-07-02T12:08:22;20.60;99.90
17599;DHT22;8918;52.092;5.232;2023-07-02T12:10:48;20.90;99.90
17599;DHT22;8918;52.092;5.232;2023-07-02T12:13:14;21.30;99.90
17599;DHT22;8918;52.092;5.232;2023-07-02T12:15:39;21.60;99.90
17599;DHT22;8918;52.092;5.232;2023-07-02T12:18:05;21.50;99.90
17599;DHT22;8918;52.092;5.232;2023-07-02T12:20:31;21.30;99.90
17599;DHT22;8918;52.092;5.232;2023-07-02T12:22:56;21.10;99.90
17599;DHT22;8918;52.092;5.232;2023-07-02T12:25:23;21.10;99.90
17599;DHT22;8918;52.092;5.232;2023-07-02T12:27:48;21.00;99.90
17599;DHT22;8918;52.092;5.232;2023-07-02T12:30:14;21.10;99.90
17599;DHT22;8918;52.092;5.232;2023-07-02T12:32:43;21.20;99.90
17599;DHT22;8918;52.092;5.232;2023-07-02T12:35:10;21.60;99.90
17599;DHT22;8918;52.092;5.232;2023-07-02T12:37:41;21.80;99.90
17599;DHT22;8918;52.092;5.232;2023-07-02T12:40:07;21.70;99.90
17599;DHT22;8918;52.092;5.232;2023-07-02T12:42:33;21.40;99.90
17599;DHT22;8918;52.092;5.232;2023-07-02T12:44:59;21.40;99.90
17599;DHT22;8918;52.092;5.232;2023-07-02T12:47:24;21.50;99.90
17599;DHT22;8918;52.092;5.232;2023-07-02T12:49:50;21.60;99.90
17599;DHT22;8918;52.092;5.232;2023-07-02T12:52:15;21.80;99.90
17599;DHT22;8918;52.092;5.232;2023-07-02T12:54:41;21.70;99.90
17599;DHT22;8918;52.092;5.232;2023-07-02T12:57:06;21.70;99.90
17599;DHT22;8918;52.092;5.232;2023-07-02T12:59:32;21.70;99.90
17599;DHT22;8918;52.092;5.232;2023-07-02T13:01:58;21.60;99.90
17599;DHT22;8918;52.092;5.232;2023-07-02T13:04:23;21.30;99.90
17599;DHT22;8918;52.092;5.232;2023-07-02T13:06:49;21.20;99.90
17599;DHT22;8918;52.092;5.232;2023-07-02T13:09:14;21.30;99.90
17599;DHT22;8918;52.092;5.232;2023-07-02T13:11:40;21.40;99.90
17599;DHT22;8918;52.092;5.232;2023-07-02T13:14:06;21.50;99.90
17599;DHT22;8918;52.092;5.232;2023-07-02T13:16:31;21.60;99.90
17599;DHT22;8918;52.092;5.232;2023-07-02T13:18:57;21.20;99.90
17599;DHT22;8918;52.092;5.232;2023-07-02T13:21:23;21.00;99.90
17599;DHT22;8918;52.092;5.232;2023-07-02T13:23:49;21.10;99.90
17599;DHT22;8918;52.092;5.232;2023-07-02T13:26:14;21.30;99.90
17599;DHT22;8918;52.092;5.232;2023-07-02T13:28:40;21.30;99.80
17599;DHT22;8918;52.092;5.232;2023-07-02T13:31:06;21.30;99.90
17599;DHT22;8918;52.092;5.232;2023-07-02T13:33:33;21.40;99.90
17599;DHT22;8918;52.092;5.232;2023-07-02T13:35:58;21.80;99.90
17599;DHT22;8918;52.092;5.232;2023-07-02T13:38:24;21.80;99.90
17599;DHT22;8918;52.092;5.232;2023-07-02T13:40:50;21.80;99.90
17599;DHT22;8918;52.092;5.232;2023-07-02T13:43:15;21.60;99.90
17599;DHT22;8918;52.092;5.232;2023-07-02T13:45:41;21.50;99.90
17599;DHT22;8918;52.092;5.232;2023-07-02T13:48:06;21.40;99.90
17599;DHT22;8918;52.092;5.232;2023-07-02T13:50:32;21.20;99.90
17599;DHT22;8918;52.092;5.232;2023-07-02T13:52:58;21.00;99.90
17599;DHT22;8918;52.092;5.232;2023-07-02T13:55:23;21.00;99.90
17599;DHT22;8918;52.092;5.232;2023-07-02T13:57:54;20.90;99.90
17599;DHT22;8918;52.092;5.232;2023-07-02T14:00:20;20.90;99.90
17599;DHT22;8918;52.092;5.232;2023-07-02T14:02:46;20.90;99.90
17599;DHT22;8918;52.092;5.232;2023-07-02T14:05:11;20.70;99.90
17599;DHT22;8918;52.092;5.232;2023-07-02T14:07:37;20.60;99.90
17599;DHT22;8918;52.092;5.232;2023-07-02T14:10:03;20.50;99.90
17599;DHT22;8918;52.092;5.232;2023-07-02T14:12:29;20.50;99.90
17599;DHT22;8918;52.092;5.232;2023-07-02T14:14:54;20.50;99.90
17599;DHT22;8918;52.092;5.232;2023-07-02T14:17:20;20.60;99.90
17599;DHT22;8918;52.092;5.232;2023-07-02T14:19:45;20.80;99.90
17599;DHT22;8918;52.092;5.232;2023-07-02T14:22:11;20.80;99.90
17599;DHT22;8918;52.092;5.232;2023-07-02T14:24:37;21.00;99.90
17599;DHT22;8918;52.092;5.232;2023-07-02T14:27:03;21.30;99.90
17599;DHT22;8918;52.092;5.232;2023-07-02T14:29:29;21.60;99.90
17599;DHT22;8918;52.092;5.232;2023-07-02T14:31:54;22.00;99.90
17599;DHT22;8918;52.092;5.232;2023-07-02T14:34:20;22.10;99.90
17599;DHT22;8918;52.092;5.232;2023-07-02T14:36:46;22.10;99.90
17599;DHT22;8918;52.092;5.232;2023-07-02T14:39:12;22.20;99.90
17599;DHT22;8918;52.092;5.232;2023-07-02T14:41:37;22.20;99.90
17599;DHT22;8918;52.092;5.232;2023-07-02T14:44:04;22.30;99.90
17599;DHT22;8918;52.092;5.232;2023-07-02T14:46:30;22.40;99.90
17599;DHT22;8918;52.092;5.232;2023-07-02T14:48:56;22.40;99.70
17599;DHT22;8918;52.092;5.232;2023-07-02T14:51:22;22.20;99.40
17599;DHT22;8918;52.092;5.232;2023-07-02T14:53:48;22.40;99.90
17599;DHT22;8918;52.092;5.232;2023-07-02T14:56:13;22.60;98.40
17599;DHT22;8918;52.092;5.232;2023-07-02T14:58:39;22.80;98.90
17599;DHT22;8918;52.092;5.232;2023-07-02T15:01:05;22.80;99.30
17599;DHT22;8918;52.092;5.232;2023-07-02T15:03:30;22.90;99.10
17599;DHT22;8918;52.092;5.232;2023-07-02T15:06:13;23.00;99.10
17599;DHT22;8918;52.092;5.232;2023-07-02T15:08:39;23.00;98.50
17599;DHT22;8918;52.092;5.232;2023-07-02T15:11:05;23.00;99.10
17599;DHT22;8918;52.092;5.232;2023-07-02T15:13:31;23.10;99.10
17599;DHT22;8918;52.092;5.232;2023-07-02T15:15:58;23.10;98.40
17599;DHT22;8918;52.092;5.232;2023-07-02T15:18:25;22.90;98.50
17599;DHT22;8918;52.092;5.232;2023-07-02T15:20:51;23.10;98.60
17599;DHT22;8918;52.092;5.232;2023-07-02T15:23:22;23.20;98.30
17599;DHT22;8918;52.092;5.232;2023-07-02T15:26:01;23.10;98.70
17599;DHT22;8918;52.092;5.232;2023-07-02T15:28:28;23.00;98.20
17599;DHT22;8918;52.092;5.232;2023-07-02T15:30:56;22.80;97.90
17599;DHT22;8918;52.092;5.232;2023-07-02T15:33:23;22.50;97.90
17599;DHT22;8918;52.092;5.232;2023-07-02T15:35:49;22.60;98.90
17599;DHT22;8918;52.092;5.232;2023-07-02T15:38:15;22.60;98.80
17599;DHT22;8918;52.092;5.232;2023-07-02T15:40:41;22.70;98.80
17599;DHT22;8918;52.092;5.232;2023-07-02T15:43:07;22.40;98.70
17599;DHT22;8918;52.092;5.232;2023-07-02T15:45:32;22.20;99.60
17599;DHT22;8918;52.092;5.232;2023-07-02T15:47:58;22.30;99.50